sensor_id;sensor_type;location;lat;lon;timestamp;temperature;humidity
13148;DHT22;6639;50.956;4.242;2024-03-23T00:53:17;17.10;99.90
13148;DHT22;6639;50.956;4.242;2024-03-23T00:55:43;17.00;99.90
13148;DHT22;6639;50.956;4.242;2024-03-23T00:58:10;17.00;99.90
13148;DHT22;6639;50.956;4.242;2024-03-23T01:00:36;16.70;99.90
13148;DHT22;6639;50.956;4.242;2024-03-23T01:03:04;16.50;99.90
13148;DHT22;6639;50.956;4.242;2024-03-23T01:05:30;16.70;99.90
13148;DHT22;6639;50.956;4.242;2024-03-23T01:07:57;16.80;99.90
13148;DHT22;6639;50.956;4.242;2024-03-23T01:10:23;16.60;99.90
13148;DHT22;6639;50.956;4.242;2024-03-23T01:12:51;16.60;99.90
13148;DHT22;6639;50.956;4.242;2024-03-23T01:15:17;16.60;99.90
13148;DHT22;6639;50.956;4.242;2024-03-23T01:17:44;16.60;99.90
13148;DHT22;6639;50.956;4.242;2024-03-23T01:20:11;16.40;99.90
13148;DHT22;6639;50.956;4.242;2024-03-23T01:22:38;16.50;99.90
13148;DHT22;6639;50.956;4.242;2024-03-23T01:25:04;16.40;99.90
13148;DHT22;6639;50.956;4.242;2024-03-23T01:27:31;16.30;99.90
13148;DHT22;6639;50.956;4.242;2024-03-23T01:29:57;16.20;99.90
13148;DHT22;6639;50.956;4.242;2024-03-23T01:32:24;16.10;99.90
13148;DHT22;6639;50.956;4.242;2024-03-23T01:34:50;16.00;99.90
13148;DHT22;6639;50.956;4.242;2024-03-23T01:37:18;16.00;99.90
13148;DHT22;6639;50.956;4.242;2024-03-23T01:39:44;16.10;99.90
13148;DHT22;6639;50.956;4.242;2024-03-23T01:42:11;15.90;99.90
13148;DHT22;6639;50.956;4.242;2024-03-23T01:44:37;15.60;99.90
13148;DHT22;6639;50.956;4.242;2024-03-23T01:47:04;15.50;99.90
13148;DHT22;6639;50.956;4.242;2024-03-23T01:49:32;15.40;99.90
13148;DHT22;6639;50.956;4.242;2024-03-23T01:51:59;15.20;99.90
13148;DHT22;6639;50.956;4.242;2024-03-23T01:54:27;15.30;99.90
13148;DHT22;6639;50.956;4.242;2024-03-23T01:56:54;15.40;99.90
13148;DHT22;6639;50.956;4.242;2024-03-23T01:59:20;15.40;99.90
13148;DHT22;6639;50.956;4.242;2024-03-23T02:01:47;15.50;99.90
13148;DHT22;6639;50.956;4.242;2024-03-23T02:04:13;15.00;99.90
13148;DHT22;6639;50.956;4.242;2024-03-23T02:06:41;15.00;99.90
13148;DHT22;6639;50.956;4.242;2024-03-23T02:09:07;15.20;99.90
13148;DHT22;6639;50.956;4.242;2024-03-23T02:11:35;15.30;99.90
13148;DHT22;6639;50.956;4.242;2024-03-23T02:14:01;15.30;99.90
13148;DHT22;6639;50.956;4.242;2024-03-23T02:16:28;15.30;99.90
13148;DHT22;6639;50.956;4.242;2024-03-23T02:18:53;15.50;99.90
13148;DHT22;6639;50.956;4.242;2024-03-23T02:21:20;15.50;99.90
13148;DHT22;6639;50.956;4.242;2024-03-23T02:23:47;15.60;99.90
13148;DHT22;6639;50.956;4.242;2024-03-23T02:26:14;15.50;99.90
13148;DHT22;6639;50.956;4.242;2024-03-23T02:28:41;15.80;99.90
13148;DHT22;6639;50.956;4.242;2024-03-23T02:31:09;15.80;99.90
13148;DHT22;6639;50.956;4.242;2024-03-23T02:33:35;15.90;99.90
13148;DHT22;6639;50.956;4.242;2024-03-23T02:36:04;15.80;99.90
13148;DHT22;6639;50.956;4.242;2024-03-23T02:38:30;15.80;99.90
13148;DHT22;6639;50.956;4.242;2024-03-23T02:41:03;15.70;99.90
13148;DHT22;6639;50.956;4.242;2024-03-23T02:43:29;15.70;99.90
13148;DHT22;6639;50.956;4.242;2024-03-23T02:45:55;15.70;99.90
13148;DHT22;6639;50.956;4.242;2024-03-23T02:48:21;15.60;99.90
13148;DHT22;6639;50.956;4.242;2024-03-23T02:50:49;15.60;99.90
13148;DHT22;6639;50.956;4.242;2024-03-23T02:53:15;15.50;99.90
13148;DHT22;6639;50.956;4.242;2024-03-23T02:55:42;15.50;99.90
13148;DHT22;6639;50.956;4.242;2024-03-23T02:58:09;15.60;99.90
13148;DHT22;6639;50.956;4.242;2024-03-23T03:00:36;15.70;99.90
13148;DHT22;6639;50.956;4.242;2024-03-23T03:03:02;15.90;99.90
13148;DHT22;6639;50.956;4.242;2024-03-23T03:05:29;15.80;99.90
13148;DHT22;6639;50.956;4.242;2024-03-23T03:07:55;15.80;99.90
13148;DHT22;6639;50.956;4.242;2024-03-23T03:10:22;15.60;99.90
13148;DHT22;6639;50.956;4.242;2024-03-23T03:12:48;15.10;99.90
13148;DHT22;6639;50.956;4.242;2024-03-23T03:15:16;15.20;99.90
13148;DHT22;6639;50.956;4.242;2024-03-23T03:17:42;15.30;99.90
13148;DHT22;6639;50.956;4.242;2024-03-23T03:20:09;15.30;99.90
13148;DHT22;6639;50.956;4.242;2024-03-23T03:22:39;15.60;99.90
13148;DHT22;6639;50.956;4.242;2024-03-23T03:25:06;15.80;99.90
13148;DHT22;6639;50.956;4.242;2024-03-23T03:27:33;15.60;99.90
13148;DHT22;6639;50.956;4.242;2024-03-23T03:30:00;15.70;99.90
13148;DHT22;6639;50.956;4.242;2024-03-23T03:32:29;15.80;99.90
13148;DHT22;6639;50.956;4.242;2024-03-23T03:34:55;16.00;99.90
13148;DHT22;6639;50.956;4.242;2024-03-23T03:37:21;16.10;99.90
13148;DHT22;6639;50.956;4.242;2024-03-23T03:39:48;16.10;99.90
13148;DHT22;6639;50.956;4.242;2024-03-23T03:42:15;16.10;99.90
13148;DHT22;6639;50.956;4.242;2024-03-23T03:44:42;16.00;99.90
13148;DHT22;6639;50.956;4.242;2024-03-23T03:47:07;15.90;99.90
13148;DHT22;6639;50.956;4.242;2024-03-23T03:49:36;15.60;99.90
13148;DHT22;6639;50.956;4.242;2024-03-23T03:52:02;15.50;99.90
13148;DHT22;6639;50.956;4.242;2024-03-23T03:54:28;15.50;99.90
13148;DHT22;6639;50.956;4.242;2024-03-23T03:56:54;15.40;99.90
13148;DHT22;6639;50.956;4.242;2024-03-23T03:59:21;15.40;99.90
13148;DHT22;6639;50.956;4.242;2024-03-23T04:01:47;15.20;99.90
13148;DHT22;6639;50.956;4.242;2024-03-23T04:04:14;15.30;99.90
13148;DHT22;6639;50.956;4.242;2024-03-23T04:06:43;15.10;99.90
13148;DHT22;6639;50.956;4.242;2024-03-23T04:09:10;15.00;99.90
13148;DHT22;6639;50.956;4.242;2024-03-23T04:11:36;14.70;99.90
13148;DHT22;6639;50.956;4.242;2024-03-23T04:14:03;14.80;99.90
13148;DHT22;6639;50.956;4.242;2024-03-23T04:16:29;14.80;99.90
13148;DHT22;6639;50.956;4.242;2024-03-23T04:18:56;14.60;99.90
13148;DHT22;6639;50.956;4.242;2024-03-23T04:21:23;14.70;99.90
13148;DHT22;6639;50.956;4.242;2024-03-23T04:23:52;14.50;99.90
13148;DHT22;6639;50.956;4.242;2024-03-23T04:26:17;14.40;99.90
13148;DHT22;6639;50.956;4.242;2024-03-23T04:28:44;14.30;99.90
13148;DHT22;6639;50.956;4.242;2024-03-23T04:31:10;14.20;99.90
13148;DHT22;6639;50.956;4.242;2024-03-23T04:33:37;14.00;99.90
13148;DHT22;6639;50.956;4.242;2024-03-23T04:36:03;13.90;99.90
13148;DHT22;6639;50.956;4.242;2024-03-23T04:38:31;13.90;99.90
13148;DHT22;6639;50.956;4.242;2024-03-23T04:40:59;13.90;99.90
13148;DHT22;6639;50.956;4.242;2024-03-23T04:43:27;13.90;99.90
13148;DHT22;6639;50.956;4.242;2024-03-23T04:45:54;13.80;99.90
13148;DHT22;6639;50.956;4.242;2024-03-23T04:48:22;13.60;99.90
13148;DHT22;6639;50.956;4.242;2024-03-23T04:50:49;13.90;99.90
13148;DHT22;6639;50.956;4.242;2024-03-23T04:53:16;13.80;99.90
13148;DHT22;6639;50.956;4.242;2024-03-23T04:55:44;13.90;99.90
13148;DHT22;6639;50.956;4.242;2024-03-23T04:58:12;13.90;99.90
13148;DHT22;6639;50.956;4.242;2024-03-23T05:00:38;14.00;99.90
13148;DHT22;6639;50.956;4.242;2024-03-23T05:03:05;14.10;99.90
13148;DHT22;6639;50.956;4.242;2024-03-23T05:05:32;14.10;99.90
13148;DHT22;6639;50.956;4.242;2024-03-23T05:07:58;13.90;99.90
13148;DHT22;6639;50.956;4.242;2024-03-23T05:10:25;14.00;99.90
13148;DHT22;6639;50.956;4.242;2024-03-23T05:12:52;14.00;99.90
13148;DHT22;6639;50.956;4.242;2024-03-23T05:15:20;14.30;99.90
13148;DHT22;6639;50.956;4.242;2024-03-23T05:17:46;14.10;99.90
13148;DHT22;6639;50.956;4.242;2024-03-23T05:20:13;14.00;99.90
13148;DHT22;6639;50.956;4.242;2024-03-23T05:22:39;13.70;99.90
13148;DHT22;6639;50.956;4.242;2024-03-23T05:25:07;13.70;99.90
13148;DHT22;6639;50.956;4.242;2024-03-23T05:27:37;13.80;99.90
13148;DHT22;6639;50.956;4.242;2024-03-23T05:30:04;13.80;99.90
13148;DHT22;6639;50.956;4.242;2024-03-23T05:32:32;13.50;99.90
13148;DHT22;6639;50.956;4.242;2024-03-23T05:34:59;13.40;99.90
13148;DHT22;6639;50.956;4.242;2024-03-23T05:37:25;13.20;99.90
13148;DHT22;6639;50.956;4.242;2024-03-23T05:39:52;13.10;99.90
13148;DHT22;6639;50.956;4.242;2024-03-23T05:42:18;13.20;99.90
13148;DHT22;6639;50.956;4.242;2024-03-23T05:44:45;13.30;99.90
13148;DHT22;6639;50.956;4.242;2024-03-23T05:47:12;13.40;99.90
13148;DHT22;6639;50.956;4.242;2024-03-23T05:49:41;13.30;99.90
13148;DHT22;6639;50.956;4.242;2024-03-23T05:52:07;13.20;99.90
13148;DHT22;6639;50.956;4.242;2024-03-23T05:54:34;13.30;99.90
13148;DHT22;6639;50.956;4.242;2024-03-23T05:57:00;13.30;99.90
13148;DHT22;6639;50.956;4.242;2024-03-23T05:59:27;13.30;99.90
13148;DHT22;6639;50.956;4.242;2024-03-23T06:01:53;13.10;99.90
13148;DHT22;6639;50.956;4.242;2024-03-23T06:04:20;13.00;99.90
13148;DHT22;6639;50.956;4.242;2024-03-23T06:06:48;13.10;99.90
13148;DHT22;6639;50.956;4.242;2024-03-23T06:09:15;13.20;99.90
13148;DHT22;6639;50.956;4.242;2024-03-23T06:11:41;13.20;99.90
13148;DHT22;6639;50.956;4.242;2024-03-23T06:14:07;13.50;99.90
13148;DHT22;6639;50.956;4.242;2024-03-23T06:16:33;13.40;99.90
13148;DHT22;6639;50.956;4.242;2024-03-23T06:19:00;13.30;99.90
13148;DHT22;6639;50.956;4.242;2024-03-23T06:21:29;13.20;99.90
13148;DHT22;6639;50.956;4.242;2024-03-23T06:23:57;13.20;99.90
13148;DHT22;6639;50.956;4.242;2024-03-23T06:26:23;13.20;99.90
13148;DHT22;6639;50.956;4.242;2024-03-23T06:28:50;13.30;99.90
13148;DHT22;6639;50.956;4.242;2024-03-23T06:31:16;13.20;99.90
13148;DHT22;6639;50.956;4.242;2024-03-23T06:33:43;12.80;99.90
13148;DHT22;6639;50.956;4.242;2024-03-23T06:36:10;12.70;99.90
13148;DHT22;6639;50.956;4.242;2024-03-23T06:38:37;12.20;99.90
13148;DHT22;6639;50.956;4.242;2024-03-23T06:41:05;12.30;99.90
13148;DHT22;6639;50.956;4.242;2024-03-23T06:43:33;12.50;99.90
13148;DHT22;6639;50.956;4.242;2024-03-23T06:45:59;12.70;99.90
13148;DHT22;6639;50.956;4.242;2024-03-23T06:48:25;12.60;99.90
13148;DHT22;6639;50.956;4.242;2024-03-23T06:50:55;12.50;99.90
13148;DHT22;6639;50.956;4.242;2024-03-23T06:53:22;12.20;99.90
13148;DHT22;6639;50.956;4.242;2024-03-23T06:55:51;12.00;99.90
13148;DHT22;6639;50.956;4.242;2024-03-23T06:58:20;11.50;99.90
13148;DHT22;6639;50.956;4.242;2024-03-23T07:00:46;11.20;99.90
13148;DHT22;6639;50.956;4.242;2024-03-23T07:03:15;11.60;99.90
13148;DHT22;6639;50.956;4.242;2024-03-23T07:05:41;11.90;99.90
13148;DHT22;6639;50.956;4.242;2024-03-23T07:08:08;12.00;99.90
13148;DHT22;6639;50.956;4.242;2024-03-23T07:10:34;12.00;99.90
13148;DHT22;6639;50.956;4.242;2024-03-23T07:13:01;12.30;99.90
13148;DHT22;6639;50.956;4.242;2024-03-23T07:15:31;12.50;99.90
13148;DHT22;6639;50.956;4.242;2024-03-23T07:18:05;12.50;99.90
13148;DHT22;6639;50.956;4.242;2024-03-23T07:20:31;12.40;99.90
13148;DHT22;6639;50.956;4.242;2024-03-23T07:22:58;12.30;99.90
13148;DHT22;6639;50.956;4.242;2024-03-23T07:25:24;12.80;99.90
13148;DHT22;6639;50.956;4.242;2024-03-23T07:27:53;13.10;99.90
13148;DHT22;6639;50.956;4.242;2024-03-23T07:30:19;13.40;99.90
13148;DHT22;6639;50.956;4.242;2024-03-23T07:32:47;13.40;99.90
13148;DHT22;6639;50.956;4.242;2024-03-23T07:35:13;13.90;99.90
13148;DHT22;6639;50.956;4.242;2024-03-23T07:37:41;14.20;99.90
13148;DHT22;6639;50.956;4.242;2024-03-23T07:40:08;14.10;99.90
13148;DHT22;6639;50.956;4.242;2024-03-23T07:42:35;14.00;99.90
13148;DHT22;6639;50.956;4.242;2024-03-23T07:45:01;14.20;99.90
13148;DHT22;6639;50.956;4.242;2024-03-23T07:47:28;14.20;99.90
13148;DHT22;6639;50.956;4.242;2024-03-23T07:49:55;14.30;99.90
13148;DHT22;6639;50.956;4.242;2024-03-23T07:52:22;14.40;99.90
13148;DHT22;6639;50.956;4.242;2024-03-23T07:54:48;14.70;99.90
13148;DHT22;6639;50.956;4.242;2024-03-23T07:57:15;14.60;99.90
13148;DHT22;6639;50.956;4.242;2024-03-23T07:59:41;14.50;99.90
13148;DHT22;6639;50.956;4.242;2024-03-23T08:02:08;14.60;99.90
13148;DHT22;6639;50.956;4.242;2024-03-23T08:04:36;15.00;99.90
13148;DHT22;6639;50.956;4.242;2024-03-23T08:07:03;15.10;99.90
13148;DHT22;6639;50.956;4.242;2024-03-23T08:09:30;15.10;99.90
13148;DHT22;6639;50.956;4.242;2024-03-23T08:11:56;15.10;99.90
13148;DHT22;6639;50.956;4.242;2024-03-23T08:14:23;15.30;99.90
13148;DHT22;6639;50.956;4.242;2024-03-23T08:16:49;15.60;99.90
13148;DHT22;6639;50.956;4.242;2024-03-23T08:19:18;16.00;99.90
13148;DHT22;6639;50.956;4.242;2024-03-23T08:21:44;15.60;99.90
13148;DHT22;6639;50.956;4.242;2024-03-23T08:24:14;15.10;99.90
13148;DHT22;6639;50.956;4.242;2024-03-23T08:26:40;14.40;99.90
13148;DHT22;6639;50.956;4.242;2024-03-23T08:29:06;14.20;99.90
13148;DHT22;6639;50.956;4.242;2024-03-23T08:31:32;14.50;99.90
13148;DHT22;6639;50.956;4.242;2024-03-23T08:33:59;14.70;99.90
13148;DHT22;6639;50.956;4.242;2024-03-23T08:36:25;14.60;99.90
13148;DHT22;6639;50.956;4.242;2024-03-23T08:38:52;13.80;99.90
13148;DHT22;6639;50.956;4.242;2024-03-23T08:41:21;14.30;99.90
13148;DHT22;6639;50.956;4.242;2024-03-23T08:43:48;14.50;99.90
13148;DHT22;6639;50.956;4.242;2024-03-23T08:46:15;14.90;99.90
13148;DHT22;6639;50.956;4.242;2024-03-23T08:48:43;15.40;99.90
13148;DHT22;6639;50.956;4.242;2024-03-23T08:51:11;15.60;99.90
13148;DHT22;6639;50.956;4.242;2024-03-23T08:53:39;15.20;99.90
13148;DHT22;6639;50.956;4.242;2024-03-23T08:56:06;15.60;99.90
13148;DHT22;6639;50.956;4.242;2024-03-23T08:58:36;15.20;99.90
13148;DHT22;6639;50.956;4.242;2024-03-23T09:01:07;15.30;99.90
13148;DHT22;6639;50.956;4.242;2024-03-23T09:03:35;15.40;99.90
13148;DHT22;6639;50.956;4.242;2024-03-23T09:06:01;15.20;99.90
13148;DHT22;6639;50.956;4.242;2024-03-23T09:08:28;15.20;99.90
13148;DHT22;6639;50.956;4.242;2024-03-23T09:10:54;15.10;99.90
13148;DHT22;6639;50.956;4.242;2024-03-23T09:13:21;15.40;99.90
13148;DHT22;6639;50.956;4.242;2024-03-23T09:15:50;14.90;99.90
13148;DHT22;6639;50.956;4.242;2024-03-23T09:18:16;14.70;99.90
13148;DHT22;6639;50.956;4.242;2024-03-23T09:20:44;14.70;99.90
13148;DHT22;6639;50.956;4.242;2024-03-23T09:23:10;15.10;99.90
13148;DHT22;6639;50.956;4.242;2024-03-23T09:25:37;15.50;99.90
13148;DHT22;6639;50.956;4.242;2024-03-23T09:28:04;15.20;99.90
13148;DHT22;6639;50.956;4.242;2024-03-23T09:30:32;14.90;99.90
13148;DHT22;6639;50.956;4.242;2024-03-23T09:32:59;15.10;99.90
13148;DHT22;6639;50.956;4.242;2024-03-23T09:35:26;15.60;99.90
13148;DHT22;6639;50.956;4.242;2024-03-23T09:37:52;15.60;99.90
13148;DHT22;6639;50.956;4.242;2024-03-23T09:40:20;14.80;99.90
13148;DHT22;6639;50.956;4.242;2024-03-23T09:42:50;14.60;99.90
13148;DHT22;6639;50.956;4.242;2024-03-23T09:45:20;15.20;99.90
13148;DHT22;6639;50.956;4.242;2024-03-23T09:47:47;15.90;99.90
13148;DHT22;6639;50.956;4.242;2024-03-23T09:50:16;15.90;99.90
13148;DHT22;6639;50.956;4.242;2024-03-23T09:52:42;15.50;99.90
13148;DHT22;6639;50.956;4.242;2024-03-23T09:55:09;15.10;99.90
13148;DHT22;6639;50.956;4.242;2024-03-23T09:57:35;15.10;99.90
13148;DHT22;6639;50.956;4.242;2024-03-23T10:00:02;15.20;99.90
13148;DHT22;6639;50.956;4.242;2024-03-23T10:02:29;15.00;99.90
13148;DHT22;6639;50.956;4.242;2024-03-23T10:04:56;14.50;99.90
13148;DHT22;6639;50.956;4.242;2024-03-23T10:07:25;14.50;99.90
13148;DHT22;6639;50.956;4.242;2024-03-23T10:09:54;14.50;99.90
13148;DHT22;6639;50.956;4.242;2024-03-23T10:12:20;14.70;99.90
13148;DHT22;6639;50.956;4.242;2024-03-23T10:14:47;14.90;99.90
13148;DHT22;6639;50.956;4.242;2024-03-23T10:17:14;14.80;99.90
13148;DHT22;6639;50.956;4.242;2024-03-23T10:19:43;14.70;99.90
13148;DHT22;6639;50.956;4.242;2024-03-23T10:22:13;15.00;99.90
13148;DHT22;6639;50.956;4.242;2024-03-23T10:24:42;15.40;99.90
13148;DHT22;6639;50.956;4.242;2024-03-23T10:27:08;15.80;99.90
13148;DHT22;6639;50.956;4.242;2024-03-23T10:29:36;16.20;99.90
13148;DHT22;6639;50.956;4.242;2024-03-23T10:32:09;16.60;99.90
13148;DHT22;6639;50.956;4.242;2024-03-23T10:34:36;16.80;99.90
13148;DHT22;6639;50.956;4.242;2024-03-23T10:37:05;16.80;99.80
13148;DHT22;6639;50.956;4.242;2024-03-23T10:39:33;16.30;99.70
13148;DHT22;6639;50.956;4.242;2024-03-23T10:42:02;15.90;99.90
13148;DHT22;6639;50.956;4.242;2024-03-23T10:44:30;14.90;99.90
13148;DHT22;6639;50.956;4.242;2024-03-23T10:46:57;14.70;99.90
13148;DHT22;6639;50.956;4.242;2024-03-23T10:49:27;14.50;99.90
13148;DHT22;6639;50.956;4.242;2024-03-23T10:51:56;14.60;99.90
13148;DHT22;6639;50.956;4.242;2024-03-23T10:54:24;14.40;99.90
13148;DHT22;6639;50.956;4.242;2024-03-23T10:56:52;14.50;99.90
13148;DHT22;6639;50.956;4.242;2024-03-23T10:59:22;14.60;99.90
13148;DHT22;6639;50.956;4.242;2024-03-23T11:01:55;14.80;99.90
13148;DHT22;6639;50.956;4.242;2024-03-23T11:04:32;15.20;99.90
13148;DHT22;6639;50.956;4.242;2024-03-23T11:06:59;15.20;99.90
13148;DHT22;6639;50.956;4.242;2024-03-23T11:09:44;15.80;99.90
13148;DHT22;6639;50.956;4.242;2024-03-23T11:12:32;16.00;99.90
13148;DHT22;6639;50.956;4.242;2024-03-23T11:15:02;15.40;99.30
13148;DHT22;6639;50.956;4.242;2024-03-23T11:17:29;14.90;99.90
13148;DHT22;6639;50.956;4.242;2024-03-23T11:19:57;14.20;99.90
13148;DHT22;6639;50.956;4.242;2024-03-23T11:22:38;13.70;99.90
13148;DHT22;6639;50.956;4.242;2024-03-23T11:25:13;13.60;99.90
13148;DHT22;6639;50.956;4.242;2024-03-23T11:27:39;14.10;99.90
13148;DHT22;6639;50.956;4.242;2024-03-23T11:30:18;14.80;99.90
13148;DHT22;6639;50.956;4.242;2024-03-23T11:32:45;15.10;99.90
13148;DHT22;6639;50.956;4.242;2024-03-23T11:35:25;15.40;99.90
13148;DHT22;6639;50.956;4.242;2024-03-23T11:38:05;15.30;99.90
13148;DHT22;6639;50.956;4.242;2024-03-23T11:40:33;15.30;99.90
13148;DHT22;6639;50.956;4.242;2024-03-23T11:43:00;15.70;99.90
13148;DHT22;6639;50.956;4.242;2024-03-23T11:45:33;15.70;99.90
13148;DHT22;6639;50.956;4.242;2024-03-23T11:48:06;15.90;99.90
13148;DHT22;6639;50.956;4.242;2024-03-23T11:50:37;15.90;99.40
13148;DHT22;6639;50.956;4.242;2024-03-23T11:53:14;15.50;99.40
13148;DHT22;6639;50.956;4.242;2024-03-23T11:55:46;15.80;99.10
13148;DHT22;6639;50.956;4.242;2024-03-23T11:58:13;15.30;99.40
13148;DHT22;6639;50.956;4.242;2024-03-23T12:00:42;14.60;99.20
13148;DHT22;6639;50.956;4.242;2024-03-23T12:03:08;14.60;99.90
13148;DHT22;6639;50.956;4.242;2024-03-23T12:05:37;15.00;99.90
13148;DHT22;6639;50.956;4.242;2024-03-23T12:11:41;14.70;99.90
13148;DHT22;6639;50.956;4.242;2024-03-23T12:14:08;14.30;99.90
13148;DHT22;6639;50.956;4.242;2024-03-23T12:16:35;14.10;99.90
13148;DHT22;6639;50.956;4.242;2024-03-23T12:19:05;14.00;99.90
13148;DHT22;6639;50.956;4.242;2024-03-23T12:21:31;14.10;99.90
13148;DHT22;6639;50.956;4.242;2024-03-23T12:23:58;14.50;99.90
13148;DHT22;6639;50.956;4.242;2024-03-23T12:26:24;14.90;99.90
13148;DHT22;6639;50.956;4.242;2024-03-23T12:28:51;14.80;99.90
13148;DHT22;6639;50.956;4.242;2024-03-23T12:31:17;15.00;99.90
13148;DHT22;6639;50.956;4.242;2024-03-23T12:33:45;15.20;98.50
13148;DHT22;6639;50.956;4.242;2024-03-23T12:36:11;15.60;99.90
13148;DHT22;6639;50.956;4.242;2024-03-23T12:38:38;15.40;99.10
13148;DHT22;6639;50.956;4.242;2024-03-23T12:41:04;15.50;98.90
13148;DHT22;6639;50.956;4.242;2024-03-23T12:43:31;15.70;99.10
13148;DHT22;6639;50.956;4.242;2024-03-23T12:45:57;15.30;97.90
13148;DHT22;6639;50.956;4.242;2024-03-23T12:48:24;15.60;98.60
13148;DHT22;6639;50.956;4.242;2024-03-23T12:50:55;15.60;98.20
13148;DHT22;6639;50.956;4.242;2024-03-23T12:53:23;15.80;97.70
13148;DHT22;6639;50.956;4.242;2024-03-23T12:55:49;16.10;98.20
13148;DHT22;6639;50.956;4.242;2024-03-23T12:58:15;16.80;98.00
13148;DHT22;6639;50.956;4.242;2024-03-23T13:00:41;16.20;96.80
13148;DHT22;6639;50.956;4.242;2024-03-23T13:03:13;15.80;97.60
13148;DHT22;6639;50.956;4.242;2024-03-23T13:05:41;15.50;98.80
13148;DHT22;6639;50.956;4.242;2024-03-23T13:08:09;15.40;99.90
13148;DHT22;6639;50.956;4.242;2024-03-23T13:10:35;15.20;99.90
13148;DHT22;6639;50.956;4.242;2024-03-23T13:13:01;15.20;99.90
13148;DHT22;6639;50.956;4.242;2024-03-23T13:15:27;15.50;99.90
13148;DHT22;6639;50.956;4.242;2024-03-23T13:17:54;15.60;99.90
13148;DHT22;6639;50.956;4.242;2024-03-23T13:20:20;15.90;99.90
13148;DHT22;6639;50.956;4.242;2024-03-23T13:22:47;15.90;99.90
13148;DHT22;6639;50.956;4.242;2024-03-23T13:25:15;15.80;99.90
13148;DHT22;6639;50.956;4.242;2024-03-23T13:27:44;15.70;99.90
13148;DHT22;6639;50.956;4.242;2024-03-23T13:30:11;16.10;99.70
13148;DHT22;6639;50.956;4.242;2024-03-23T13:32:38;15.90;99.50
13148;DHT22;6639;50.956;4.242;2024-03-23T13:35:04;15.70;99.20
13148;DHT22;6639;50.956;4.242;2024-03-23T13:37:32;15.80;99.40
13148;DHT22;6639;50.956;4.242;2024-03-23T13:39:58;16.10;99.00
13148;DHT22;6639;50.956;4.242;2024-03-23T13:42:26;16.50;99.10
13148;DHT22;6639;50.956;4.242;2024-03-23T13:44:52;16.10;98.30
13148;DHT22;6639;50.956;4.242;2024-03-23T13:47:19;15.90;98.50
13148;DHT22;6639;50.956;4.242;2024-03-23T13:49:45;15.90;98.30
13148;DHT22;6639;50.956;4.242;2024-03-23T13:52:12;15.30;98.50
13148;DHT22;6639;50.956;4.242;2024-03-23T13:54:37;15.20;99.20
13148;DHT22;6639;50.956;4.242;2024-03-23T13:57:05;15.30;99.10
13148;DHT22;6639;50.956;4.242;2024-03-23T13:59:32;15.60;99.90
13148;DHT22;6639;50.956;4.242;2024-03-23T14:01:59;16.10;99.70
13148;DHT22;6639;50.956;4.242;2024-03-23T14:04:25;16.40;99.60
13148;DHT22;6639;50.956;4.242;2024-03-23T14:06:52;16.50;98.20
13148;DHT22;6639;50.956;4.242;2024-03-23T14:09:18;16.80;98.10
13148;DHT22;6639;50.956;4.242;2024-03-23T14:11:48;16.70;98.60
13148;DHT22;6639;50.956;4.242;2024-03-23T14:14:16;16.80;99.10
13148;DHT22;6639;50.956;4.242;2024-03-23T14:23:20;17.30;98.40
13148;DHT22;6639;50.956;4.242;2024-03-23T14:25:47;17.50;97.80
13148;DHT22;6639;50.956;4.242;2024-03-23T14:28:13;17.10;97.40
13148;DHT22;6639;50.956;4.242;2024-03-23T14:30:42;17.00;95.70
13148;DHT22;6639;50.956;4.242;2024-03-23T14:33:08;16.90;96.80
13148;DHT22;6639;50.956;4.242;2024-03-23T14:35:35;16.80;97.40
13148;DHT22;6639;50.956;4.242;2024-03-23T14:38:02;17.30;97.20
13148;DHT22;6639;50.956;4.242;2024-03-23T14:40:30;17.20;96.40
13148;DHT22;6639;50.956;4.242;2024-03-23T14:42:56;17.10;96.30
13148;DHT22;6639;50.956;4.242;2024-03-23T14:45:24;16.70;96.80
13148;DHT22;6639;50.956;4.242;2024-03-23T14:47:50;16.50;97.40
13148;DHT22;6639;50.956;4.242;2024-03-23T14:50:17;16.50;97.30
13148;DHT22;6639;50.956;4.242;2024-03-23T14:52:44;16.40;97.70
13148;DHT22;6639;50.956;4.242;2024-03-23T14:55:12;16.40;97.20
13148;DHT22;6639;50.956;4.242;2024-03-23T14:57:39;16.30;96.50
13148;DHT22;6639;50.956;4.242;2024-03-23T15:00:08;16.40;97.20
13148;DHT22;6639;50.956;4.242;2024-03-23T15:02:36;16.20;97.00
13148;DHT22;6639;50.956;4.242;2024-03-23T15:05:03;16.10;98.20
13148;DHT22;6639;50.956;4.242;2024-03-23T15:07:30;16.00;97.60
13148;DHT22;6639;50.956;4.242;2024-03-23T15:09:57;16.10;98.10
13148;DHT22;6639;50.956;4.242;2024-03-23T15:12:23;16.40;96.60
13148;DHT22;6639;50.956;4.242;2024-03-23T15:14:51;16.30;96.00
13148;DHT22;6639;50.956;4.242;2024-03-23T15:17:18;16.20;95.00
13148;DHT22;6639;50.956;4.242;2024-03-23T15:19:44;16.20;94.90
13148;DHT22;6639;50.956;4.242;2024-03-23T15:22:28;16.20;96.70
13148;DHT22;6639;50.956;4.242;2024-03-23T15:24:55;15.80;95.90
13148;DHT22;6639;50.956;4.242;2024-03-23T15:27:21;15.70;95.70
13148;DHT22;6639;50.956;4.242;2024-03-23T15:29:47;15.30;96.70
13148;DHT22;6639;50.956;4.242;2024-03-23T15:32:15;16.00;96.00
13148;DHT22;6639;50.956;4.242;2024-03-23T15:34:43;16.50;96.10
13148;DHT22;6639;50.956;4.242;2024-03-23T15:37:09;16.90;95.40
13148;DHT22;6639;50.956;4.242;2024-03-23T15:39:38;16.70;95.20
13148;DHT22;6639;50.956;4.242;2024-03-23T15:42:05;16.50;94.90
13148;DHT22;6639;50.956;4.242;2024-03-23T15:44:32;16.40;96.00
13148;DHT22;6639;50.956;4.242;2024-03-23T15:46:58;16.40;96.10
13148;DHT22;6639;50.956;4.242;2024-03-23T15:49:48;16.70;95.80
13148;DHT22;6639;50.956;4.242;2024-03-23T15:52:21;17.00;94.80
13148;DHT22;6639;50.956;4.242;2024-03-23T15:54:48;16.50;94.90
13148;DHT22;6639;50.956;4.242;2024-03-23T15:57:14;16.00;96.00
13148;DHT22;6639;50.956;4.242;2024-03-23T15:59:41;16.10;96.20
13148;DHT22;6639;50.956;4.242;2024-03-23T16:02:07;16.00;96.20
13148;DHT22;6639;50.956;4.242;2024-03-23T16:04:34;16.40;96.50
13148;DHT22;6639;50.956;4.242;2024-03-23T16:07:01;16.70;95.50
13148;DHT22;6639;50.956;4.242;2024-03-23T16:09:28;16.70;95.70
13148;DHT22;6639;50.956;4.242;2024-03-23T16:11:55;16.80;96.40
13148;DHT22;6639;50.956;4.242;2024-03-23T16:14:23;16.70;95.80
13148;DHT22;6639;50.956;4.242;2024-03-23T16:16:49;16.80;96.30
13148;DHT22;6639;50.956;4.242;2024-03-23T16:19:16;16.90;96.20
13148;DHT22;6639;50.956;4.242;2024-03-23T16:21:44;17.00;96.20
13148;DHT22;6639;50.956;4.242;2024-03-23T16:24:19;17.10;95.90
13148;DHT22;6639;50.956;4.242;2024-03-23T16:26:45;17.50;95.60
13148;DHT22;6639;50.956;4.242;2024-03-23T16:29:12;17.50;94.90
13148;DHT22;6639;50.956;4.242;2024-03-23T16:31:38;17.40;95.30
13148;DHT22;6639;50.956;4.242;2024-03-23T16:34:05;17.40;95.30
13148;DHT22;6639;50.956;4.242;2024-03-23T16:36:37;17.30;95.20
13148;DHT22;6639;50.956;4.242;2024-03-23T16:39:20;17.20;95.60
13148;DHT22;6639;50.956;4.242;2024-03-23T16:41:58;16.50;95.60
13148;DHT22;6639;50.956;4.242;2024-03-23T16:44:29;16.40;95.90
13148;DHT22;6639;50.956;4.242;2024-03-23T16:47:05;16.00;96.70
13148;DHT22;6639;50.956;4.242;2024-03-23T16:49:31;15.30;98.60